createdAt,value
2024-05-09T00:00:18.406Z,119
2024-05-09T00:01:19.821Z,118
2024-05-09T00:02:28.104Z,114
2024-05-09T00:03:33.489Z,110
2024-05-09T00:04:38.781Z,110
2024-05-09T00:05:46.924Z,104
2024-05-09T00:06:52.281Z,110
2024-05-09T00:07:57.699Z,113
2024-05-09T00:09:03.025Z,110
2024-05-09T00:10:11.753Z,109
2024-05-09T00:11:13.861Z,113
2024-05-09T00:12:22.310Z,107
2024-05-09T00:13:27.661Z,120
2024-05-09T00:14:33.420Z,111
2024-05-09T00:15:41.140Z,117
2024-05-09T00:16:46.484Z,110
2024-05-09T00:17:52.521Z,113
2024-05-09T00:18:58.373Z,111
2024-05-09T00:20:05.260Z,112
2024-05-09T00:21:09.727Z,114
2024-05-09T00:22:14.972Z,115
2024-05-09T00:23:20.278Z,101
2024-05-09T00:24:25.413Z,111
2024-05-09T00:25:31.057Z,105
2024-05-09T00:26:36.358Z,109
2024-05-09T00:27:41.799Z,113
2024-05-09T00:28:47.464Z,109
2024-05-09T00:29:52.538Z,110
2024-05-09T00:30:58.346Z,113
2024-05-09T00:32:03.921Z,110
2024-05-09T00:33:10.218Z,112
2024-05-09T00:34:15.029Z,114
2024-05-09T00:35:20.457Z,107
2024-05-09T00:36:25.956Z,111
2024-05-09T00:37:31.379Z,113
2024-05-09T00:38:37.209Z,117
2024-05-09T00:39:42.406Z,111
2024-05-09T00:40:48.054Z,111
2024-05-09T00:41:53.599Z,107
2024-05-09T00:42:59.135Z,110
2024-05-09T00:44:04.721Z,115
2024-05-09T00:45:10.020Z,107
2024-05-09T00:46:15.816Z,112
2024-05-09T00:47:21.393Z,118
2024-05-09T00:49:32.175Z,115
2024-05-09T00:50:37.973Z,112
2024-05-09T00:51:42.759Z,118
2024-05-09T00:52:48.555Z,115
2024-05-09T00:53:54.353Z,118
2024-05-09T00:54:59.692Z,118
2024-05-09T00:56:05.640Z,112
2024-05-09T00:57:11.121Z,122
2024-05-09T00:58:16.462Z,116
2024-05-09T00:59:21.949Z,114
2024-05-09T01:00:31.997Z,116
2024-05-09T01:01:32.965Z,117
2024-05-09T01:02:38.248Z,121
2024-05-09T01:03:45.244Z,120
2024-05-09T01:04:49.385Z,117
2024-05-09T01:05:54.674Z,118
2024-05-09T01:07:00.077Z,114
2024-05-09T01:08:08.877Z,112
2024-05-09T01:09:14.005Z,114
2024-05-09T01:10:24.066Z,114
2024-05-09T01:11:25.097Z,111
2024-05-09T01:12:30.737Z,128
2024-05-09T01:13:36.020Z,116
2024-05-09T01:14:41.514Z,120
2024-05-09T01:15:46.734Z,114
2024-05-09T01:16:52.317Z,120
2024-05-09T01:17:57.951Z,119
2024-05-09T01:19:03.440Z,113
2024-05-09T01:20:10.707Z,115
2024-05-09T01:21:14.275Z,119
2024-05-09T01:22:19.417Z,119
2024-05-09T01:23:24.864Z,113
2024-05-09T01:24:30.445Z,121
2024-05-09T01:25:35.680Z,119
2024-05-09T01:26:41.285Z,107
2024-05-09T01:27:46.647Z,112
2024-05-09T01:28:52.605Z,109
2024-05-09T01:29:57.819Z,111
2024-05-09T01:31:03.402Z,106
2024-05-09T01:32:08.691Z,108
2024-05-09T01:33:14.550Z,107
2024-05-09T01:34:20.281Z,110
2024-05-09T01:35:25.706Z,106
2024-05-09T01:36:31.169Z,117
2024-05-09T01:37:36.468Z,115
2024-05-09T01:38:42.298Z,119
2024-05-09T01:39:47.874Z,124
2024-05-09T01:40:53.319Z,117
2024-05-09T01:41:58.909Z,115
2024-05-09T01:43:04.253Z,119
2024-05-09T01:44:10.102Z,111
2024-05-09T01:45:15.259Z,117
2024-05-09T01:46:20.696Z,109
2024-05-09T01:47:26.162Z,113
2024-05-09T01:48:31.844Z,116
2024-05-09T01:49:37.097Z,112
2024-05-09T01:50:42.963Z,121
2024-05-09T01:51:47.265Z,113
2024-05-09T01:52:53.012Z,122
2024-05-09T01:53:58.489Z,115
2024-05-09T01:55:05.735Z,115
2024-05-09T01:56:12.036Z,116
2024-05-09T01:57:17.664Z,116
2024-05-09T01:58:23.050Z,122
2024-05-09T01:59:28.887Z,120
2024-05-09T02:00:38.146Z,119
2024-05-09T02:01:54.902Z,121
2024-05-09T02:02:45.291Z,123
2024-05-09T02:03:50.933Z,112
2024-05-09T02:04:56.382Z,117
2024-05-09T02:06:01.725Z,119
2024-05-09T02:07:07.339Z,123
2024-05-09T02:08:12.780Z,121
2024-05-09T02:09:18.362Z,117
2024-05-09T02:10:29.924Z,117
2024-05-09T02:11:29.597Z,109
2024-05-09T02:12:35.085Z,112
2024-05-09T02:13:40.508Z,117
2024-05-09T02:14:46.161Z,114
2024-05-09T02:15:51.884Z,113
2024-05-09T02:16:57.168Z,114
2024-05-09T02:18:02.883Z,112
2024-05-09T02:19:08.699Z,111
2024-05-09T02:20:18.725Z,114
2024-05-09T02:21:19.510Z,106
2024-05-09T02:22:24.743Z,114
2024-05-09T02:23:30.429Z,113
2024-05-09T02:24:35.828Z,114
2024-05-09T02:25:41.289Z,111
2024-05-09T02:26:46.486Z,109
2024-05-09T02:27:52.092Z,111
2024-05-09T02:29:00.294Z,109
2024-05-09T02:30:09.872Z,112
2024-05-09T02:31:12.882Z,112
2024-05-09T02:32:18.630Z,112
2024-05-09T02:33:24.049Z,120
2024-05-09T02:34:29.325Z,107
2024-05-09T02:35:34.925Z,111
2024-05-09T02:36:40.259Z,119
2024-05-09T02:37:45.636Z,113
2024-05-09T02:38:51.135Z,112
2024-05-09T02:39:56.333Z,120
2024-05-09T02:41:01.960Z,117
2024-05-09T02:42:07.096Z,121
2024-05-09T02:43:13.032Z,121
2024-05-09T02:44:18.519Z,118
2024-05-09T02:45:24.013Z,121
2024-05-09T02:46:29.579Z,108
2024-05-09T02:47:35.344Z,113
2024-05-09T02:48:41.047Z,113
2024-05-09T02:49:46.333Z,109
2024-05-09T02:50:51.652Z,115
2024-05-09T02:51:57.261Z,112
2024-05-09T02:53:02.657Z,107
2024-05-09T02:54:11.321Z,120
2024-05-09T02:55:16.561Z,116
2024-05-09T02:56:22.414Z,116
2024-05-09T02:57:27.779Z,109
2024-05-09T02:58:33.262Z,116
2024-05-09T02:59:39.050Z,116
2024-05-09T03:00:47.518Z,119
2024-05-09T03:01:53.117Z,122
2024-05-09T03:02:58.433Z,121
2024-05-09T03:04:03.826Z,114
2024-05-09T03:05:09.143Z,121
2024-05-09T03:06:14.746Z,115
2024-05-09T03:07:20.382Z,116
2024-05-09T03:08:25.563Z,117
2024-05-09T03:09:30.647Z,119
2024-05-09T03:10:37.662Z,111
2024-05-09T03:11:41.894Z,116
2024-05-09T03:12:47.558Z,120
2024-05-09T03:13:53.281Z,106
2024-05-09T03:14:58.823Z,110
2024-05-09T03:16:04.317Z,113
2024-05-09T03:17:09.721Z,111
2024-05-09T03:18:15.759Z,113
2024-05-09T03:19:20.776Z,113
2024-05-09T03:20:30.496Z,118
2024-05-09T03:21:31.796Z,112
2024-05-09T03:22:37.361Z,110
2024-05-09T03:23:42.803Z,107
2024-05-09T03:24:48.441Z,108
2024-05-09T03:25:53.808Z,119
2024-05-09T03:26:59.285Z,117
2024-05-09T03:28:04.620Z,119
2024-05-09T03:29:10.429Z,119
2024-05-09T03:30:25.487Z,122
2024-05-09T03:31:21.436Z,114
2024-05-09T03:32:27.103Z,111
2024-05-09T03:33:32.477Z,114
2024-05-09T03:34:37.864Z,119
2024-05-09T03:35:43.542Z,118
2024-05-09T03:36:48.925Z,110
2024-05-09T03:37:54.424Z,118
2024-05-09T03:38:59.768Z,113
2024-05-09T03:40:07.244Z,110
2024-05-09T03:41:11.579Z,113
2024-05-09T03:42:16.873Z,110
2024-05-09T03:43:22.505Z,113
2024-05-09T03:44:27.945Z,116
2024-05-09T03:45:33.422Z,109
2024-05-09T03:46:38.595Z,118
2024-05-09T03:47:44.237Z,113
2024-05-09T03:48:49.599Z,122
2024-05-09T03:49:55.164Z,118
2024-05-09T03:51:00.414Z,116
2024-05-09T03:52:05.852Z,118
2024-05-09T03:53:11.577Z,110
2024-05-09T03:54:16.854Z,116
2024-05-09T03:55:22.526Z,117
2024-05-09T03:56:28.128Z,115
2024-05-09T03:57:33.817Z,111
2024-05-09T03:58:39.453Z,118
2024-05-09T03:59:44.902Z,111
2024-05-09T04:00:50.562Z,115
2024-05-09T04:01:56.229Z,116
2024-05-09T04:03:01.935Z,107
2024-05-09T04:04:06.954Z,102
2024-05-09T04:05:12.414Z,106
2024-05-09T04:06:20.872Z,111
2024-05-09T04:07:29.209Z,113
2024-05-09T04:08:34.888Z,116
2024-05-09T04:09:40.142Z,117
2024-05-09T04:10:44.068Z,117
2024-05-09T04:11:47.680Z,117
2024-05-09T04:12:57.659Z,117
2024-05-09T04:14:04.659Z,114
2024-05-09T04:15:12.805Z,117
2024-05-09T04:16:15.710Z,116
2024-05-09T04:17:21.126Z,108
2024-05-09T04:18:26.645Z,121
2024-05-09T04:19:32.642Z,119
2024-05-09T04:20:39.566Z,119
2024-05-09T04:21:43.557Z,114
2024-05-09T04:22:49.009Z,114
2024-05-09T04:23:54.306Z,119
2024-05-09T04:24:59.964Z,119
2024-05-09T04:26:05.398Z,116
2024-05-09T04:27:10.910Z,115
2024-05-09T04:28:19.157Z,125
2024-05-09T04:29:24.899Z,116
2024-05-09T04:30:34.221Z,121
2024-05-09T04:31:35.563Z,120
2024-05-09T04:32:41.235Z,117
2024-05-09T04:33:46.895Z,118
2024-05-09T04:34:52.320Z,119
2024-05-09T04:35:57.618Z,116
2024-05-09T04:37:03.292Z,118
2024-05-09T04:38:09.013Z,117
2024-05-09T04:39:14.458Z,114
2024-05-09T04:40:27.601Z,113
2024-05-09T04:41:25.639Z,121
2024-05-09T04:42:31.048Z,121
2024-05-09T04:43:36.447Z,116
2024-05-09T04:44:42.012Z,123
2024-05-09T04:45:47.387Z,120
2024-05-09T04:46:52.945Z,118
2024-05-09T04:47:58.491Z,117
2024-05-09T04:49:03.569Z,113
2024-05-09T04:50:11.676Z,114
2024-05-09T04:51:14.676Z,111
2024-05-09T04:52:19.960Z,110
2024-05-09T04:53:25.537Z,116
2024-05-09T04:54:35.774Z,113
2024-05-09T04:55:36.583Z,103
2024-05-09T04:56:42.206Z,108
2024-05-09T04:57:47.528Z,113
2024-05-09T04:58:52.986Z,112
2024-05-09T04:59:58.328Z,111
2024-05-09T05:01:03.839Z,115
2024-05-09T05:02:09.147Z,115
2024-05-09T05:03:15.394Z,109
2024-05-09T05:04:19.992Z,112
2024-05-09T05:05:25.592Z,113
2024-05-09T05:06:30.914Z,118
2024-05-09T05:07:36.327Z,116
2024-05-09T05:08:41.872Z,112
2024-05-09T05:09:47.413Z,115
2024-05-09T05:10:52.858Z,124
2024-05-09T05:11:58.434Z,112
2024-05-09T05:13:03.977Z,120
2024-05-09T05:14:14.109Z,115
2024-05-09T05:15:19.895Z,115
2024-05-09T05:16:25.192Z,123
2024-05-09T05:17:33.758Z,130
2024-05-09T05:18:38.898Z,120
2024-05-09T05:19:44.775Z,119
2024-05-09T05:20:50.061Z,111
2024-05-09T05:21:55.547Z,109
2024-05-09T05:23:01.237Z,112
2024-05-09T05:24:06.400Z,110
2024-05-09T05:25:12.147Z,114
2024-05-09T05:26:17.658Z,114
2024-05-09T05:27:23.204Z,109
2024-05-09T05:28:28.591Z,106
2024-05-09T05:29:34.326Z,104
2024-05-09T05:30:40.063Z,108
2024-05-09T05:31:45.072Z,114
2024-05-09T05:32:50.631Z,110
2024-05-09T05:33:55.952Z,107
2024-05-09T05:35:01.651Z,107
2024-05-09T05:36:07.036Z,111
2024-05-09T05:37:12.562Z,110
2024-05-09T05:38:18.190Z,112
2024-05-09T05:39:23.636Z,112
2024-05-09T05:40:35.342Z,109
2024-05-09T05:41:34.644Z,116
2024-05-09T05:42:40.029Z,104
2024-05-09T05:43:45.681Z,111
2024-05-09T05:44:51.030Z,121
2024-05-09T05:45:56.517Z,116
2024-05-09T05:47:01.991Z,113
2024-05-09T05:48:07.701Z,103
2024-05-09T05:49:12.907Z,104
2024-05-09T05:50:24.130Z,108
2024-05-09T05:51:23.531Z,108
2024-05-09T05:52:28.683Z,103
2024-05-09T05:53:37.027Z,97
2024-05-09T05:54:45.216Z,104
2024-05-09T05:55:51.013Z,109
2024-05-09T05:56:56.154Z,101
2024-05-09T05:58:01.765Z,95
2024-05-09T05:59:07.601Z,96
2024-05-09T06:01:18.765Z,109
2024-05-09T06:02:23.669Z,111
2024-05-09T06:03:28.254Z,111
2024-05-09T06:04:34.035Z,105
2024-05-09T06:05:38.983Z,101
2024-05-09T06:06:43.475Z,100
2024-05-09T06:07:49.062Z,102
2024-05-09T06:08:54.792Z,85
2024-05-09T06:10:00.088Z,95
2024-05-09T06:11:05.758Z,93
2024-05-09T06:12:14.199Z,90
2024-05-09T06:13:19.610Z,100
2024-05-09T06:14:25.234Z,96
2024-05-09T06:15:30.569Z,93
2024-05-09T06:16:36.049Z,89
2024-05-09T06:17:41.712Z,82
2024-05-09T06:18:47.292Z,76
2024-05-09T06:19:52.712Z,72
2024-05-09T06:20:58.153Z,80
2024-05-09T06:22:03.821Z,73
2024-05-09T06:23:09.776Z,79
2024-05-09T06:24:14.880Z,77
2024-05-09T06:25:20.100Z,79
2024-05-09T06:26:25.867Z,76
2024-05-09T06:27:31.262Z,81
2024-05-09T06:28:36.976Z,72
2024-05-09T06:29:42.796Z,76
2024-05-09T06:30:48.170Z,75
2024-05-09T06:31:55.416Z,65
2024-05-09T06:32:59.415Z,64
2024-05-09T06:34:05.061Z,69
2024-05-09T06:35:10.248Z,59
2024-05-09T06:36:15.844Z,58
2024-05-09T06:37:21.201Z,63
2024-05-09T06:38:26.706Z,62
2024-05-09T06:39:32.061Z,53
2024-05-09T06:40:38.863Z,59
2024-05-09T06:41:42.821Z,61
2024-05-09T06:42:48.359Z,48
2024-05-09T06:43:53.692Z,51
2024-05-09T06:44:59.154Z,40
2024-05-09T06:46:04.823Z,73
2024-05-09T06:47:10.178Z,63
2024-05-09T06:48:15.834Z,53
2024-05-09T06:49:21.206Z,34
2024-05-09T06:50:28.122Z,32
2024-05-09T06:51:31.992Z,71
2024-05-09T06:52:39.921Z,68
2024-05-09T06:53:45.693Z,57
2024-05-09T06:54:51.534Z,33
2024-05-09T06:55:56.895Z,35
2024-05-09T06:57:02.399Z,34
2024-05-09T06:58:08.313Z,27
2024-05-09T06:59:13.826Z,31
2024-05-09T07:00:22.976Z,42
2024-05-09T07:02:34.964Z,30
2024-05-09T07:03:40.293Z,46
2024-05-09T07:04:45.691Z,36
2024-05-09T07:05:51.126Z,33
2024-05-09T07:06:59.348Z,39
2024-05-09T07:08:04.734Z,46
2024-05-09T07:09:10.345Z,31
2024-05-09T07:10:21.495Z,34
2024-05-09T07:11:21.228Z,25
2024-05-09T07:12:26.535Z,25
2024-05-09T07:13:32.183Z,37
2024-05-09T07:14:38.282Z,42
2024-05-09T07:15:42.649Z,43
2024-05-09T07:16:48.327Z,32
2024-05-09T07:17:54.064Z,34
2024-05-09T07:18:59.425Z,41
2024-05-09T07:20:06.812Z,52
2024-05-09T07:21:10.220Z,26
2024-05-09T07:22:15.933Z,27
2024-05-09T07:23:21.413Z,35
2024-05-09T07:24:27.029Z,36
2024-05-09T07:25:32.381Z,38
2024-05-09T07:26:37.794Z,31
2024-05-09T07:27:43.078Z,37
2024-05-09T07:28:48.654Z,39
2024-05-09T07:29:53.866Z,34
2024-05-09T07:30:59.459Z,46
2024-05-09T07:32:04.906Z,35
2024-05-09T07:33:10.361Z,30
2024-05-09T07:34:20.616Z,34
2024-05-09T07:35:25.979Z,28
2024-05-09T07:36:31.428Z,28
2024-05-09T07:37:36.740Z,49
2024-05-09T07:38:42.536Z,29
2024-05-09T07:39:48.093Z,37
2024-05-09T07:40:53.596Z,38
2024-05-09T07:42:01.628Z,31
2024-05-09T07:43:06.962Z,56
2024-05-09T07:44:12.098Z,51
2024-05-09T07:46:51.584Z,34
2024-05-09T07:48:13.570Z,60
2024-05-09T07:49:43.939Z,36
2024-05-09T07:52:46.021Z,32
2024-05-09T07:54:01.881Z,41
2024-05-09T07:55:06.879Z,41
2024-05-09T07:56:12.667Z,38
2024-05-09T07:57:17.198Z,52
2024-05-09T07:58:22.545Z,39
2024-05-09T07:59:28.048Z,34
2024-05-09T08:00:33.686Z,36
2024-05-09T08:01:39.073Z,27
2024-05-09T08:02:44.536Z,37
2024-05-09T08:03:52.840Z,51
2024-05-09T08:04:58.294Z,38
2024-05-09T08:06:03.724Z,42
2024-05-09T08:07:09.444Z,35
2024-05-09T08:08:14.725Z,50
2024-05-09T08:09:21.294Z,35
2024-05-09T08:10:28.646Z,37
2024-05-09T08:11:31.174Z,25
2024-05-09T08:12:36.615Z,47
2024-05-09T08:13:42.088Z,36
2024-05-09T08:14:47.316Z,35
2024-05-09T08:15:53.035Z,37
2024-05-09T08:16:58.359Z,53
2024-05-09T08:18:04.161Z,26
2024-05-09T08:19:12.187Z,41
2024-05-09T08:20:22.800Z,40
2024-05-09T08:21:22.870Z,59
2024-05-09T08:22:28.363Z,55
2024-05-09T08:23:33.873Z,47
2024-05-09T08:24:39.730Z,45
2024-05-09T08:25:45.432Z,41
2024-05-09T08:26:50.900Z,52
2024-05-09T08:27:56.452Z,43
2024-05-09T08:29:02.188Z,64
2024-05-09T08:30:10.147Z,38
2024-05-09T08:31:13.292Z,36
2024-05-09T08:32:18.964Z,49
2024-05-09T08:33:24.430Z,32
2024-05-09T08:34:30.111Z,32
2024-05-09T08:35:35.857Z,68
2024-05-09T08:36:41.141Z,46
2024-05-09T08:37:46.268Z,40
2024-05-09T08:38:51.774Z,25
2024-05-09T08:39:57.035Z,36
2024-05-09T08:41:02.674Z,31
2024-05-09T08:42:07.908Z,28
2024-05-09T08:43:13.896Z,37
2024-05-09T08:44:19.127Z,42
2024-05-09T08:45:24.632Z,61
2024-05-09T08:46:30.189Z,51
2024-05-09T08:47:35.744Z,49
2024-05-09T08:48:41.001Z,56
2024-05-09T08:49:46.501Z,47
2024-05-09T08:50:51.379Z,44
2024-05-09T08:51:57.021Z,25
2024-05-09T08:53:02.136Z,61
2024-05-09T08:54:07.416Z,68
2024-05-09T08:55:12.936Z,54
2024-05-09T08:56:18.592Z,32
2024-05-09T08:57:23.648Z,56
2024-05-09T08:58:28.636Z,48
2024-05-09T08:59:34.122Z,41
2024-05-09T09:00:42.547Z,25
2024-05-09T09:01:48.006Z,47
2024-05-09T09:02:53.221Z,65
2024-05-09T09:03:58.956Z,59
2024-05-09T09:05:04.544Z,55
2024-05-09T09:06:10.175Z,53
2024-05-09T09:07:15.816Z,52
2024-05-09T09:08:21.058Z,48
2024-05-09T09:09:26.898Z,58
2024-05-09T09:10:32.843Z,46
2024-05-09T09:11:37.576Z,64
2024-05-09T09:12:43.011Z,55
2024-05-09T09:13:48.597Z,39
2024-05-09T09:14:53.983Z,57
2024-05-09T09:16:02.241Z,47
2024-05-09T09:17:07.562Z,66
2024-05-09T09:18:18.454Z,38
2024-05-09T09:19:23.927Z,37
2024-05-09T09:20:33.805Z,42
2024-05-09T09:21:34.653Z,45
2024-05-09T09:22:39.961Z,53
2024-05-09T09:23:45.267Z,47
2024-05-09T09:24:50.888Z,45
2024-05-09T09:25:56.043Z,38
2024-05-09T09:27:04.454Z,37
2024-05-09T09:28:10.091Z,34
2024-05-09T09:29:14.788Z,31
2024-05-09T09:30:27.627Z,61
2024-05-09T09:31:24.969Z,47
2024-05-09T09:32:30.606Z,60
2024-05-09T09:33:35.501Z,43
2024-05-09T09:34:44.781Z,43
2024-05-09T09:35:49.746Z,35
2024-05-09T09:36:55.182Z,25
2024-05-09T09:38:04.812Z,42
2024-05-09T09:39:09.950Z,44
2024-05-09T09:40:15.572Z,67
2024-05-09T09:41:19.525Z,69
2024-05-09T09:42:24.302Z,36
2024-05-09T09:43:32.769Z,43
2024-05-09T09:44:41.924Z,41
2024-05-09T09:45:43.891Z,46
2024-05-09T09:46:49.113Z,29
2024-05-09T09:47:54.728Z,49
2024-05-09T09:49:02.979Z,51
2024-05-09T09:50:12.073Z,37
2024-05-09T09:51:13.828Z,36
2024-05-09T09:52:19.635Z,52
2024-05-09T09:53:24.797Z,115
2024-05-09T09:54:30.306Z,124
2024-05-09T09:55:35.766Z,95
2024-05-09T09:56:41.163Z,86
2024-05-09T09:57:46.598Z,105
2024-05-09T09:58:52.192Z,82
2024-05-09T09:59:58.012Z,59
2024-05-09T10:01:03.462Z,78
2024-05-09T10:02:08.894Z,62
2024-05-09T10:03:14.420Z,60
2024-05-09T10:04:19.844Z,36
2024-05-09T10:05:25.723Z,36
2024-05-09T10:06:30.621Z,33
2024-05-09T10:07:39.060Z,34
2024-05-09T10:08:44.468Z,45
2024-05-09T10:09:49.945Z,38
2024-05-09T10:10:55.380Z,37
2024-05-09T10:12:00.922Z,42
2024-05-09T10:13:13.713Z,42
2024-05-09T10:14:19.231Z,53
2024-05-09T10:15:25.011Z,68
2024-05-09T10:16:30.424Z,69
2024-05-09T10:17:36.150Z,76
2024-05-09T10:18:41.927Z,108
2024-05-09T10:19:47.150Z,70
2024-05-09T10:20:52.436Z,59
2024-05-09T10:21:57.964Z,55
2024-05-09T10:23:08.356Z,42
2024-05-09T10:24:23.766Z,55
2024-05-09T10:25:29.286Z,37
2024-05-09T10:26:34.805Z,56
2024-05-09T10:27:40.069Z,52
2024-05-09T10:28:45.426Z,55
2024-05-09T10:29:50.913Z,52
2024-05-09T10:31:01.308Z,41
2024-05-09T10:32:11.717Z,44
2024-05-09T10:33:17.000Z,45
2024-05-09T10:34:25.989Z,45
2024-05-09T10:35:30.905Z,72
2024-05-09T10:36:36.492Z,43
2024-05-09T10:37:42.125Z,38
2024-05-09T10:38:47.598Z,33
2024-05-09T10:39:53.217Z,53
2024-05-09T10:41:01.218Z,54
2024-05-09T10:42:06.956Z,72
2024-05-09T10:43:12.526Z,86
2024-05-09T10:44:18.002Z,81
2024-05-09T10:45:23.326Z,76
2024-05-09T10:46:31.566Z,57
2024-05-09T10:47:37.102Z,74
2024-05-09T10:48:42.688Z,62
2024-05-09T10:49:48.001Z,81
2024-05-09T10:50:53.380Z,58
2024-05-09T10:51:58.668Z,76
2024-05-09T10:53:04.085Z,60
2024-05-09T10:54:09.406Z,25
2024-05-09T10:55:15.034Z,75
2024-05-09T10:56:20.357Z,82
2024-05-09T10:57:25.879Z,77
2024-05-09T10:58:31.519Z,51
2024-05-09T10:59:39.777Z,48
2024-05-09T11:00:45.540Z,53
2024-05-09T11:01:51.139Z,85
2024-05-09T11:02:56.242Z,80
2024-05-09T11:04:01.691Z,91
2024-05-09T11:05:07.072Z,55
2024-05-09T11:06:12.132Z,81
2024-05-09T11:07:20.357Z,77
2024-05-09T11:08:25.712Z,58
2024-05-09T11:09:31.572Z,45
2024-05-09T11:10:36.813Z,74
2024-05-09T11:11:42.607Z,64
2024-05-09T11:12:47.961Z,66
2024-05-09T11:13:53.588Z,52
2024-05-09T11:14:58.901Z,34
2024-05-09T11:16:04.414Z,64
2024-05-09T11:17:19.596Z,57
2024-05-09T11:18:25.511Z,57
2024-05-09T11:19:30.438Z,25
2024-05-09T11:20:36.437Z,62
2024-05-09T11:21:41.636Z,50
2024-05-09T11:22:47.211Z,49
2024-05-09T11:23:52.554Z,99
2024-05-09T11:24:57.963Z,101
2024-05-09T11:26:03.794Z,92
2024-05-09T11:27:09.108Z,71
2024-05-09T11:28:15.019Z,74
2024-05-09T11:29:20.037Z,86
2024-05-09T11:30:29.724Z,62
2024-05-09T11:31:31.292Z,42
2024-05-09T11:32:36.632Z,54
2024-05-09T11:33:42.076Z,61
2024-05-09T11:34:50.132Z,71
2024-05-09T11:36:00.903Z,36
2024-05-09T11:37:06.792Z,65
2024-05-09T11:38:12.104Z,77
2024-05-09T11:39:17.572Z,61
2024-05-09T11:40:25.059Z,70
2024-05-09T11:41:28.207Z,102
2024-05-09T11:42:33.910Z,87
2024-05-09T11:43:39.409Z,79
2024-05-09T11:44:44.617Z,88
2024-05-09T11:45:50.303Z,90
2024-05-09T11:46:55.718Z,78
2024-05-09T11:48:01.300Z,76
2024-05-09T11:49:06.514Z,83
2024-05-09T11:50:16.299Z,63
2024-05-09T11:51:17.261Z,82
2024-05-09T11:52:22.925Z,64
2024-05-09T11:53:28.374Z,46
2024-05-09T11:54:34.039Z,56
2024-05-09T11:55:39.311Z,48
2024-05-09T11:56:44.799Z,41
2024-05-09T11:57:50.512Z,39
2024-05-09T11:58:55.911Z,88
2024-05-09T12:00:02.303Z,82
2024-05-09T12:01:07.917Z,55
2024-05-09T12:02:13.357Z,71
2024-05-09T12:03:18.594Z,127
2024-05-09T12:04:24.266Z,102
2024-05-09T12:05:29.670Z,80
2024-05-09T12:06:34.896Z,56
2024-05-09T12:07:40.514Z,63
2024-05-09T12:08:45.843Z,72
2024-05-09T12:09:51.453Z,64
2024-05-09T12:10:57.298Z,91
2024-05-09T12:12:02.229Z,75
2024-05-09T12:13:08.039Z,60
2024-05-09T12:14:13.374Z,77
2024-05-09T12:15:18.877Z,67
2024-05-09T12:16:24.864Z,101
2024-05-09T12:17:30.348Z,77
2024-05-09T12:18:35.520Z,78
2024-05-09T12:19:41.292Z,93
2024-05-09T12:20:46.696Z,93
2024-05-09T12:21:52.135Z,80
2024-05-09T12:22:57.606Z,79
2024-05-09T12:24:03.147Z,75
2024-05-09T12:25:08.641Z,67
2024-05-09T12:26:14.132Z,74
2024-05-09T12:27:19.257Z,70
2024-05-09T12:28:24.947Z,76
2024-05-09T12:29:30.317Z,59
2024-05-09T12:30:37.384Z,59
2024-05-09T12:31:41.287Z,47
2024-05-09T12:32:46.743Z,53
2024-05-09T12:33:52.000Z,46
2024-05-09T12:34:57.676Z,53
2024-05-09T12:36:03.365Z,81
2024-05-09T12:37:08.854Z,58
2024-05-09T12:38:17.604Z,60
2024-05-09T12:39:23.576Z,59
2024-05-09T12:40:34.103Z,60
2024-05-09T12:41:34.227Z,39
2024-05-09T12:42:39.722Z,56
2024-05-09T12:43:45.266Z,42
2024-05-09T12:44:50.454Z,55
2024-05-09T12:45:56.012Z,79
2024-05-09T12:47:01.473Z,67
2024-05-09T12:48:07.520Z,76
2024-05-09T12:49:14.427Z,85
2024-05-09T12:50:24.593Z,54
2024-05-09T12:51:23.734Z,48
2024-05-09T12:52:29.228Z,77
2024-05-09T12:53:34.939Z,58
2024-05-09T12:54:40.450Z,51
2024-05-09T12:55:52.598Z,49
2024-05-09T12:56:51.600Z,46
2024-05-09T12:57:57.391Z,47
2024-05-09T12:59:02.601Z,53
2024-05-09T13:00:14.155Z,47
2024-05-09T13:01:14.092Z,63
2024-05-09T13:02:19.917Z,60
2024-05-09T13:03:25.360Z,55
2024-05-09T13:04:30.836Z,58
2024-05-09T13:05:36.278Z,68
2024-05-09T13:06:41.599Z,61
2024-05-09T13:07:47.297Z,55
2024-05-09T13:08:52.483Z,53
2024-05-09T13:09:57.979Z,60
2024-05-09T13:11:03.233Z,61
2024-05-09T13:12:08.952Z,66
2024-05-09T13:13:14.535Z,61
2024-05-09T13:14:20.005Z,52
2024-05-09T13:15:25.558Z,57
2024-05-09T13:16:31.011Z,56
2024-05-09T13:17:36.745Z,46
2024-05-09T13:18:42.225Z,50
2024-05-09T13:19:47.692Z,56
2024-05-09T13:20:53.092Z,55
2024-05-09T13:21:58.397Z,59
2024-05-09T13:23:03.794Z,54
2024-05-09T13:24:09.466Z,55
2024-05-09T13:25:14.916Z,54
2024-05-09T13:26:20.096Z,55
2024-05-09T13:27:25.521Z,48
2024-05-09T13:28:30.974Z,55
2024-05-09T13:29:36.476Z,46
2024-05-09T13:30:42.369Z,62
2024-05-09T13:31:47.423Z,60
2024-05-09T13:32:52.755Z,35
2024-05-09T13:33:58.342Z,49
2024-05-09T13:35:03.617Z,58
2024-05-09T13:36:08.949Z,83
2024-05-09T13:37:14.347Z,67
2024-05-09T13:38:20.226Z,51
2024-05-09T13:39:25.274Z,78
2024-05-09T13:40:33.255Z,89
2024-05-09T13:41:38.859Z,104
2024-05-09T13:42:46.376Z,70
2024-05-09T13:43:49.527Z,67
2024-05-09T13:44:55.287Z,64
2024-05-09T13:46:00.737Z,52
2024-05-09T13:47:06.409Z,52
2024-05-09T13:48:12.021Z,61
2024-05-09T13:49:17.613Z,50
2024-05-09T13:50:27.631Z,59
2024-05-09T13:51:27.924Z,62
2024-05-09T13:52:33.275Z,59
2024-05-09T13:53:39.117Z,53
2024-05-09T13:54:44.639Z,52
2024-05-09T13:55:52.901Z,35
2024-05-09T13:56:58.256Z,41
2024-05-09T13:58:03.793Z,47
2024-05-09T13:59:09.077Z,48
2024-05-09T14:00:22.724Z,55
2024-05-09T14:01:19.964Z,64
2024-05-09T14:02:25.322Z,56
2024-05-09T14:03:30.655Z,68
2024-05-09T14:04:35.433Z,67
2024-05-09T14:05:40.211Z,61
2024-05-09T14:06:45.561Z,53
2024-05-09T14:07:50.251Z,55
2024-05-09T14:08:55.401Z,78
2024-05-09T14:10:00.795Z,78
2024-05-09T14:11:05.643Z,67
2024-05-09T14:12:11.677Z,58
2024-05-09T14:13:16.862Z,53
2024-05-09T14:14:21.801Z,58
2024-05-09T14:15:26.671Z,49
2024-05-09T14:16:32.351Z,61
2024-05-09T14:17:37.769Z,54
2024-05-09T14:18:43.162Z,57
2024-05-09T14:19:48.494Z,63
2024-05-09T14:20:53.979Z,58
2024-05-09T14:21:59.693Z,60
2024-05-09T14:23:05.205Z,53
2024-05-09T14:24:10.375Z,63
2024-05-09T14:25:15.852Z,51
2024-05-09T14:26:21.085Z,45
2024-05-09T14:27:26.934Z,46
2024-05-09T14:28:32.460Z,47
2024-05-09T14:29:37.951Z,71
2024-05-09T14:30:43.276Z,76
2024-05-09T14:31:48.757Z,58
2024-05-09T14:32:54.282Z,59
2024-05-09T14:33:59.600Z,58
2024-05-09T14:35:05.059Z,69
2024-05-09T14:36:10.662Z,66
2024-05-09T14:37:16.195Z,78
2024-05-09T14:38:21.719Z,61
2024-05-09T14:39:27.385Z,78
2024-05-09T14:40:38.740Z,53
2024-05-09T14:41:38.152Z,79
2024-05-09T14:42:43.802Z,67
2024-05-09T14:43:49.160Z,76
2024-05-09T14:44:54.698Z,48
2024-05-09T14:46:00.143Z,54
2024-05-09T14:47:05.664Z,32
2024-05-09T14:48:10.992Z,32
2024-05-09T14:49:19.475Z,30
2024-05-09T14:50:31.866Z,31
2024-05-09T14:51:30.051Z,41
2024-05-09T14:52:35.393Z,27
2024-05-09T14:53:40.825Z,30
2024-05-09T14:54:46.757Z,41
2024-05-09T14:55:51.654Z,39
2024-05-09T14:56:57.089Z,46
2024-05-09T14:58:02.686Z,41
2024-05-09T14:59:07.851Z,42
2024-05-09T15:00:17.297Z,62
2024-05-09T15:01:20.563Z,59
2024-05-09T15:02:28.693Z,32
2024-05-09T15:03:34.223Z,40
2024-05-09T15:04:40.073Z,47
2024-05-09T15:05:45.302Z,40
2024-05-09T15:06:50.764Z,38
2024-05-09T15:07:56.128Z,35
2024-05-09T15:09:01.761Z,54
2024-05-09T15:10:13.727Z,32
2024-05-09T15:11:15.267Z,32
2024-05-09T15:12:21.030Z,51
2024-05-09T15:13:26.880Z,33
2024-05-09T15:14:32.118Z,42
2024-05-09T15:15:37.798Z,35
2024-05-09T15:16:42.899Z,55
2024-05-09T15:17:48.496Z,68
2024-05-09T15:18:54.061Z,51
2024-05-09T15:19:59.489Z,59
2024-05-09T15:21:05.069Z,61
2024-05-09T15:22:10.399Z,60
2024-05-09T15:23:16.015Z,47
2024-05-09T15:24:21.604Z,43
2024-05-09T15:25:27.104Z,43
2024-05-09T15:26:32.726Z,48
2024-05-09T15:27:38.102Z,58
2024-05-09T15:28:43.802Z,67
2024-05-09T15:29:48.934Z,68
2024-05-09T15:30:54.586Z,59